Time;durP1;ratioP1;P1;durP2;ratioP2;P2;SDS_P1;SDS_P2;PMS_P1;PMS_P2;Temp;Humidity;BMP_temperature;BMP_pressure;BME280_temperature;BME280_humidity;BME280_pressure;Samples;Min_cycle;Max_cycle;Signal;HPM_P1;HPM_P2
2023/07/18 00:03:33;;;;;;;;;;;;;;;15.18;91.51;102032.03;10497751;28;19925;-63
2023/07/18 00:08:36;;;;;;;;;;;;;;;15.07;95.31;102031.81;10497559;28;19925;-63
2023/07/18 00:13:38;;;;;;;;;;;;;;;15.37;89.09;102035.31;10497085;28;19924;-63
2023/07/18 00:18:40;;;;;;;;;;;;;;;15.23;90.05;102030.84;10497302;28;19924;-63
2023/07/18 00:23:43;;;;;;;;;;;;;;;15.53;86.71;102024.75;10497132;28;20041;-63
2023/07/18 00:28:45;;;;;;;;;;;;;;;15.17;91.01;102023.28;10497205;28;19925;-63
2023/07/18 00:33:47;;;;;;;;;;;;;;;14.99;94.36;102019.91;10497001;28;19928;-63
2023/07/18 00:38:50;;;;;;;;;;;;;;;15.01;94.33;102030.38;10483526;28;19928;-63
2023/07/18 00:43:52;;;;;;;;;;;;;;;14.86;96.11;102024.16;10504118;28;19924;-63
2023/07/18 00:48:54;;;;;;;;;;;;;;;14.80;99.62;102021.88;10503843;28;19924;-63
2023/07/18 00:53:57;;;;;;;;;;;;;;;14.61;100.00;102027.34;10503608;28;20011;-63
2023/07/18 00:58:59;;;;;;;;;;;;;;;14.53;100.00;102032.13;10485643;28;19928;-63
2023/07/18 01:04:01;;;;;;;;;;;;;;;14.73;98.43;102031.09;10485832;28;19966;-63
2023/07/18 01:09:05;;;;;;;;;;;;;;;14.55;100.00;102025.00;10503684;28;19939;-63
2023/07/18 01:14:07;;;;;;;;;;;;;;;14.53;100.00;102027.72;10502675;28;20007;-62
2023/07/18 01:19:10;;;;;;;;;;;;;;;14.18;100.00;102030.44;10502697;28;19924;-63
2023/07/18 01:24:13;;;;;;;;;;;;;;;14.38;100.00;102020.63;10502481;28;19961;-63
2023/07/18 01:29:15;;;;;;;;;;;;;;;14.36;100.00;102014.63;10502488;28;19928;-63
2023/07/18 01:34:17;;;;;;;;;;;;;;;14.07;100.00;102022.25;10502086;28;19931;-63
2023/07/18 01:39:19;;;;;;;;;;;;;;;14.08;100.00;102018.69;10501702;28;19929;-63
2023/07/18 01:44:22;;;;;;;;;;;;;;;14.15;100.00;102012.16;10501701;28;19998;-62
2023/07/18 01:49:24;;;;;;;;;;;;;;;13.86;100.00;102011.91;10501282;28;20275;-63
2023/07/18 01:54:27;;;;;;;;;;;;;;;13.97;100.00;102006.13;10501197;28;19948;-63
2023/07/18 01:59:29;;;;;;;;;;;;;;;13.95;100.00;102002.69;10466793;28;20417;-63
2023/07/18 02:04:31;;;;;;;;;;;;;;;13.86;100.00;102001.41;10501030;28;19925;-63
2023/07/18 02:09:34;;;;;;;;;;;;;;;13.91;100.00;101998.53;10500735;28;19924;-63
2023/07/18 02:14:37;;;;;;;;;;;;;;;13.95;100.00;101997.41;10500236;28;19959;-63
2023/07/18 02:19:39;;;;;;;;;;;;;;;13.85;100.00;101997.06;10500297;28;19928;-63
2023/07/18 02:24:41;;;;;;;;;;;;;;;14.09;100.00;101988.81;10499925;28;20260;-63
2023/07/18 02:29:45;;;;;;;;;;;;;;;14.41;100.00;101979.16;10482262;28;19925;-63
2023/07/18 02:34:47;;;;;;;;;;;;;;;13.95;100.00;101979.00;10499586;28;19931;-63
2023/07/18 02:39:50;;;;;;;;;;;;;;;14.02;100.00;101982.16;10499524;28;19928;-63
2023/07/18 02:44:52;;;;;;;;;;;;;;;13.91;100.00;101975.69;10499224;28;20268;-63
2023/07/18 02:49:55;;;;;;;;;;;;;;;14.02;100.00;101976.88;10499104;28;19931;-63
2023/07/18 02:54:57;;;;;;;;;;;;;;;13.95;100.00;101968.47;10498931;28;19924;-63
2023/07/18 02:59:59;;;;;;;;;;;;;;;13.98;100.00;101970.94;10498387;28;19932;-63
2023/07/18 03:05:02;;;;;;;;;;;;;;;13.91;100.00;101974.84;10481163;28;19950;-63
2023/07/18 03:10:04;;;;;;;;;;;;;;;13.86;100.00;101971.59;10498500;28;20295;-63
2023/07/18 03:15:10;;;;;;;;;;;;;;;14.05;100.00;101977.56;10480533;28;19928;-63
2023/07/18 03:20:24;;;;;;;;;;;;;;;13.93;100.00;101976.44;10498321;28;20427;-63
2023/07/18 03:25:26;;;;;;;;;;;;;;;13.84;100.00;101984.84;10498262;28;19947;-63
2023/07/18 03:30:28;;;;;;;;;;;;;;;13.92;100.00;101987.06;10498155;28;19925;-62
2023/07/18 03:35:31;;;;;;;;;;;;;;;13.59;100.00;101985.25;10497991;28;20011;-62
2023/07/18 03:40:33;;;;;;;;;;;;;;;13.79;100.00;101989.50;10498008;28;19931;-63
2023/07/18 03:45:35;;;;;;;;;;;;;;;14.05;100.00;101980.19;10497788;28;19931;-63
2023/07/18 03:50:38;;;;;;;;;;;;;;;14.12;100.00;101983.34;10479982;28;19925;-63
2023/07/18 03:55:43;;;;;;;;;;;;;;;14.29;100.00;101983.31;10497834;28;20287;-63
2023/07/18 04:00:45;;;;;;;;;;;;;;;14.31;100.00;101970.06;10497384;28;19925;-63
2023/07/18 04:05:47;;;;;;;;;;;;;;;13.92;100.00;101974.75;10497608;28;19930;-63
2023/07/18 04:10:49;;;;;;;;;;;;;;;13.94;100.00;101978.16;10497145;28;20397;-63
2023/07/18 04:15:55;;;;;;;;;;;;;;;13.89;100.00;101966.19;10487528;28;19928;-63
2023/07/18 04:21:03;;;;;;;;;;;;;;;14.09;100.00;101958.06;10487269;28;19931;-63
2023/07/18 04:26:06;;;;;;;;;;;;;;;13.82;100.00;101962.13;10504737;28;19963;-63
2023/07/18 04:31:08;;;;;;;;;;;;;;;14.10;100.00;101957.13;10504435;28;20367;-63
2023/07/18 04:36:10;;;;;;;;;;;;;;;14.35;100.00;101944.41;10504372;28;19930;-63
2023/07/18 04:41:12;;;;;;;;;;;;;;;14.50;99.14;101948.81;10504277;28;19931;-63
2023/07/18 04:46:15;;;;;;;;;;;;;;;14.67;96.84;101958.44;10503992;28;19929;-63
2023/07/18 04:51:17;;;;;;;;;;;;;;;14.80;95.95;101948.91;10504419;28;19928;-63
2023/07/18 04:56:19;;;;;;;;;;;;;;;15.02;92.79;101945.88;10503695;28;19936;-63
2023/07/18 05:01:22;;;;;;;;;;;;;;;15.03;92.10;101942.31;10503397;28;19925;-63
2023/07/18 05:06:24;;;;;;;;;;;;;;;14.96;92.00;101946.25;10503383;28;19979;-63
2023/07/18 05:11:26;;;;;;;;;;;;;;;14.98;93.57;101947.00;10502767;28;20260;-63
2023/07/18 05:16:29;;;;;;;;;;;;;;;15.32;89.32;101944.19;10503066;28;19925;-63
2023/07/18 05:21:31;;;;;;;;;;;;;;;15.42;90.21;101945.34;10502587;28;19924;-63
2023/07/18 05:26:33;;;;;;;;;;;;;;;15.43;90.69;101947.03;10501855;28;19925;-63
2023/07/18 05:31:35;;;;;;;;;;;;;;;15.31;88.60;101945.13;10502285;28;20488;-63
2023/07/18 05:36:38;;;;;;;;;;;;;;;15.53;89.44;101950.84;10502030;28;19963;-62
2023/07/18 05:41:40;;;;;;;;;;;;;;;15.47;89.57;101953.84;10502053;28;19928;-63
2023/07/18 05:46:42;;;;;;;;;;;;;;;15.27;90.65;101948.91;10501654;28;20032;-63
2023/07/18 05:51:45;;;;;;;;;;;;;;;15.54;89.62;101962.25;10501398;28;19924;-63
2023/07/18 05:56:47;;;;;;;;;;;;;;;15.50;88.46;101958.94;10501254;28;19924;-63
2023/07/18 06:01:49;;;;;;;;;;;;;;;15.74;89.62;101953.13;10500944;28;20286;-62
2023/07/18 06:06:53;;;;;;;;;;;;;;;15.63;86.69;101963.47;10483189;28;19924;-63
2023/07/18 06:11:55;;;;;;;;;;;;;;;15.68;87.28;101956.13;10500454;28;19943;-63
2023/07/18 06:16:57;;;;;;;;;;;;;;;15.86;84.60;101951.53;10500452;28;19931;-63
2023/07/18 06:22:00;;;;;;;;;;;;;;;15.86;85.57;101954.19;10500140;28;19929;-62
2023/07/18 06:27:02;;;;;;;;;;;;;;;16.12;82.41;101956.06;10499923;28;19924;-62
2023/07/18 06:32:05;;;;;;;;;;;;;;;15.98;83.30;101966.63;10499854;28;19932;-63
2023/07/18 06:37:08;;;;;;;;;;;;;;;16.20;85.26;101957.38;10481048;28;20012;-63
2023/07/18 06:42:12;;;;;;;;;;;;;;;16.38;82.95;101952.72;10499626;28;19925;-63
2023/07/18 06:47:14;;;;;;;;;;;;;;;16.60;80.63;101950.38;10499329;28;19935;-63
2023/07/18 06:52:17;;;;;;;;;;;;;;;16.94;82.19;101945.56;10499018;28;20295;-60
2023/07/18 06:57:19;;;;;;;;;;;;;;;16.98;78.35;101948.84;10499042;28;19930;-63
2023/07/18 07:02:21;;;;;;;;;;;;;;;17.05;77.88;101951.00;10498728;28;20007;-63
2023/07/18 07:07:25;;;;;;;;;;;;;;;17.33;76.40;101954.47;10498662;28;20019;-63
2023/07/18 07:12:29;;;;;;;;;;;;;;;17.43;77.00;101944.94;10498344;28;19967;-63
2023/07/18 07:17:37;;;;;;;;;;;;;;;17.53;74.31;101947.78;10481824;28;19924;-63
2023/07/18 07:22:43;;;;;;;;;;;;;;;18.15;72.81;101944.34;10498270;28;20342;-63
2023/07/18 07:27:46;;;;;;;;;;;;;;;18.94;71.45;101923.59;10498218;28;20367;-63
2023/07/18 07:32:51;;;;;;;;;;;;;;;18.79;69.23;101931.84;10498157;28;20432;-63
2023/07/18 07:37:53;;;;;;;;;;;;;;;19.62;66.09;101931.72;10498027;28;19925;-63
2023/07/18 07:42:56;;;;;;;;;;;;;;;19.83;65.01;101929.22;10498142;28;19956;-64
2023/07/18 07:47:58;;;;;;;;;;;;;;;19.89;64.05;101927.03;10503036;28;20011;-64
2023/07/18 07:53:00;;;;;;;;;;;;;;;19.97;65.45;101929.94;10506094;28;20379;-64
2023/07/18 07:58:03;;;;;;;;;;;;;;;19.90;62.76;101928.72;10505806;28;20287;-69
2023/07/18 08:03:05;;;;;;;;;;;;;;;20.34;60.96;101922.53;10505937;28;19925;-66
2023/07/18 08:08:08;;;;;;;;;;;;;;;21.33;60.59;101925.88;10505615;28;20299;-63
2023/07/18 08:13:10;;;;;;;;;;;;;;;21.84;59.72;101918.00;10505076;28;20298;-63
2023/07/18 08:18:12;;;;;;;;;;;;;;;21.66;61.80;101913.28;10505165;28;19924;-63
2023/07/18 08:23:15;;;;;;;;;;;;;;;21.32;60.39;101915.34;10504780;28;19928;-63
2023/07/18 08:28:17;;;;;;;;;;;;;;;21.74;59.13;101903.78;10504636;28;20359;-63
2023/07/18 08:33:21;;;;;;;;;;;;;;;22.07;56.18;101905.28;10504451;28;20364;-63
2023/07/18 08:38:23;;;;;;;;;;;;;;;22.80;55.21;101888.97;10504259;28;20379;-63
2023/07/18 08:43:25;;;;;;;;;;;;;;;22.16;53.61;101903.66;10504121;28;20287;-63
2023/07/18 08:48:28;;;;;;;;;;;;;;;22.81;53.88;101891.50;10503866;28;19929;-63
2023/07/18 08:53:30;;;;;;;;;;;;;;;23.44;53.50;101892.78;10503730;28;20051;-61
2023/07/18 08:58:32;;;;;;;;;;;;;;;23.68;52.72;101880.72;10502643;28;19925;-63
2023/07/18 09:03:35;;;;;;;;;;;;;;;23.06;52.55;101875.00;10503310;28;20299;-62
2023/07/18 09:08:43;;;;;;;;;;;;;;;23.69;52.00;101869.88;10503056;28;20364;-60
2023/07/18 09:13:46;;;;;;;;;;;;;;;23.52;52.55;101863.50;10502693;28;20291;-60
2023/07/18 09:18:55;;;;;;;;;;;;;;;24.61;51.92;101862.72;10502823;28;19924;-63
2023/07/18 09:23:57;;;;;;;;;;;;;;;23.69;49.13;101853.84;10502617;28;19931;-60
2023/07/18 09:29:01;;;;;;;;;;;;;;;25.12;48.09;101854.03;10502623;28;20037;-60
2023/07/18 09:34:06;;;;;;;;;;;;;;;24.92;49.64;101846.19;10484775;28;19963;-60
2023/07/18 09:39:09;;;;;;;;;;;;;;;25.53;47.37;101851.56;10484320;28;19932;-60
2023/07/18 09:44:11;;;;;;;;;;;;;;;26.05;47.87;101847.91;10501799;28;20003;-61
2023/07/18 09:49:29;;;;;;;;;;;;;;;25.94;44.68;101846.31;10501562;28;19963;-60
2023/07/18 09:54:35;;;;;;;;;;;;;;;24.62;44.34;101839.44;10501548;28;19960;-60
2023/07/18 09:59:37;;;;;;;;;;;;;;;26.06;45.14;101828.13;10483472;28;20295;-60
2023/07/18 10:04:40;;;;;;;;;;;;;;;24.59;48.18;101837.06;10501044;28;19943;-60
2023/07/18 10:09:42;;;;;;;;;;;;;;;23.88;49.46;101836.03;10500771;28;19931;-60
2023/07/18 10:14:47;;;;;;;;;;;;;;;24.56;47.76;101832.88;10500155;28;20435;-61
2023/07/18 10:19:49;;;;;;;;;;;;;;;26.35;44.81;101822.28;10500190;28;19930;-61
2023/07/18 10:24:52;;;;;;;;;;;;;;;26.67;46.30;101815.25;10482324;28;19925;-61
2023/07/18 10:30:03;;;;;;;;;;;;;;;27.55;43.17;101803.56;10511873;22;19931;-62
2023/07/18 10:35:07;;;;;;;;;;;;;;;27.06;41.06;101801.06;10499779;28;19925;-62
2023/07/18 10:40:10;;;;;;;;;;;;;;;28.31;43.48;101803.78;10499689;28;19964;-62
2023/07/18 10:45:13;;;;;;;;;;;;;;;27.15;44.90;101793.78;10499342;28;20353;-62
2023/07/18 10:50:15;;;;;;;;;;;;;;;26.94;39.07;101783.63;10499412;28;19928;-62
2023/07/18 10:55:20;;;;;;;;;;;;;;;28.89;39.00;101770.91;10499211;28;19932;-62
2023/07/18 11:00:24;;;;;;;;;;;;;;;28.67;40.60;101773.50;10481051;28;19946;-62
2023/07/18 11:05:26;;;;;;;;;;;;;;;28.28;38.98;101762.91;10498942;28;19931;-62
2023/07/18 11:10:28;;;;;;;;;;;;;;;28.41;37.74;101755.06;10498651;28;19946;-62
2023/07/18 11:15:31;;;;;;;;;;;;;;;29.26;37.09;101744.88;10480940;28;19942;-62
2023/07/18 11:20:34;;;;;;;;;;;;;;;28.66;37.24;101746.75;10480316;28;20383;-62
2023/07/18 11:25:36;;;;;;;;;;;;;;;30.20;38.47;101731.28;10480403;28;20299;-62
2023/07/18 11:30:38;;;;;;;;;;;;;;;28.89;37.95;101735.88;10498352;28;19931;-62
2023/07/18 11:35:45;;;;;;;;;;;;;;;29.87;33.50;101740.97;10498153;28;20376;-62
2023/07/18 11:40:48;;;;;;;;;;;;;;;30.71;34.16;101734.78;10480500;28;19925;-62
2023/07/18 11:45:54;;;;;;;;;;;;;;;30.38;36.08;101732.72;10497944;28;19933;-62
2023/07/18 11:50:56;;;;;;;;;;;;;;;30.32;35.83;101711.84;10497889;28;19924;-63
2023/07/18 11:55:58;;;;;;;;;;;;;;;29.69;34.47;101709.00;10497643;28;19932;-62
2023/07/18 12:01:01;;;;;;;;;;;;;;;28.50;34.16;101713.53;10497537;28;19928;-62
2023/07/18 12:06:03;;;;;;;;;;;;;;;30.49;35.73;101718.66;10497509;28;19974;-62
2023/07/18 12:11:09;;;;;;;;;;;;;;;28.75;38.30;101707.06;10497426;28;19985;-63
2023/07/18 12:16:11;;;;;;;;;;;;;;;30.93;34.60;101705.78;10497561;28;19975;-63
2023/07/18 12:21:13;;;;;;;;;;;;;;;29.92;32.34;101687.25;10497415;28;19964;-63
2023/07/18 12:26:16;;;;;;;;;;;;;;;29.99;33.12;101685.44;10497178;28;19928;-63
2023/07/18 12:31:19;;;;;;;;;;;;;;;29.93;31.51;101687.06;10497075;28;19925;-63
2023/07/18 12:36:21;;;;;;;;;;;;;;;30.99;32.90;101704.19;10503602;28;20286;-62
2023/07/18 12:41:24;;;;;;;;;;;;;;;31.41;31.35;101699.53;10504195;28;20397;-63
2023/07/18 12:46:26;;;;;;;;;;;;;;;29.51;31.67;101698.69;10504071;28;20390;-63
2023/07/18 12:51:29;;;;;;;;;;;;;;;30.16;32.87;101689.53;10504164;28;19924;-63
2023/07/18 12:56:33;;;;;;;;;;;;;;;31.17;34.02;101692.78;10503670;28;19929;-63
2023/07/18 13:01:36;;;;;;;;;;;;;;;29.91;31.83;101689.13;10503707;28;19924;-63
2023/07/18 13:06:38;;;;;;;;;;;;;;;30.76;34.07;101678.25;10485593;28;19924;-63
2023/07/18 13:11:40;;;;;;;;;;;;;;;30.15;35.16;101665.41;10485614;28;20385;-63
2023/07/18 13:16:43;;;;;;;;;;;;;;;31.63;31.83;101665.84;10485165;28;19925;-63
2023/07/18 13:21:45;;;;;;;;;;;;;;;30.79;31.99;101650.00;10502707;28;19963;-63
2023/07/18 13:26:48;;;;;;;;;;;;;;;31.80;32.47;101643.78;10484803;28;20375;-63
2023/07/18 13:31:50;;;;;;;;;;;;;;;31.65;30.98;101630.47;10502376;28;19974;-63
2023/07/18 13:36:52;;;;;;;;;;;;;;;31.77;33.11;101626.06;10502108;28;19931;-63
2023/07/18 13:41:55;;;;;;;;;;;;;;;29.70;30.26;101611.69;10501790;28;20364;-63
2023/07/18 13:46:57;;;;;;;;;;;;;;;28.78;32.17;101605.16;10501366;28;20007;-63
2023/07/18 13:51:59;;;;;;;;;;;;;;;29.88;33.44;101602.31;10483814;28;19924;-63
2023/07/18 13:57:01;;;;;;;;;;;;;;;29.82;32.33;101596.66;10501230;28;20321;-63
2023/07/18 14:02:03;;;;;;;;;;;;;;;30.86;31.03;101591.38;10500994;28;20398;-63
2023/07/18 14:07:06;;;;;;;;;;;;;;;31.43;34.04;101581.09;10500807;28;19931;-63
2023/07/18 14:12:09;;;;;;;;;;;;;;;30.67;34.26;101572.19;10483069;28;19924;-63
2023/07/18 14:17:12;;;;;;;;;;;;;;;29.90;33.27;101563.28;10500472;28;19935;-62
2023/07/18 14:22:16;;;;;;;;;;;;;;;30.56;32.10;101556.56;10499971;28;20310;-63
2023/07/18 14:27:18;;;;;;;;;;;;;;;30.47;31.23;101549.69;10499940;28;19924;-63
2023/07/18 14:32:21;;;;;;;;;;;;;;;30.98;33.91;101546.50;10499985;28;19925;-63
2023/07/18 14:37:23;;;;;;;;;;;;;;;31.17;32.95;101544.03;10499939;28;19924;-63
2023/07/18 14:42:25;;;;;;;;;;;;;;;29.60;34.29;101551.81;10499436;28;20371;-63
2023/07/18 14:47:28;;;;;;;;;;;;;;;29.47;32.07;101541.75;10499329;28;19932;-63
2023/07/18 14:52:30;;;;;;;;;;;;;;;31.27;32.82;101539.91;10499404;28;19924;-63
2023/07/18 14:57:32;;;;;;;;;;;;;;;31.13;32.29;101532.81;10498431;28;20015;-63
2023/07/18 15:02:35;;;;;;;;;;;;;;;29.21;34.58;101527.03;10481284;28;19924;-62
2023/07/18 15:07:37;;;;;;;;;;;;;;;31.24;34.51;101520.56;10498753;28;19933;-63
2023/07/18 15:12:40;;;;;;;;;;;;;;;30.97;33.58;101519.69;10498645;28;19931;-63
2023/07/18 15:17:43;;;;;;;;;;;;;;;30.65;33.71;101528.34;10498640;28;19960;-63
2023/07/18 15:22:51;;;;;;;;;;;;;;;30.44;34.01;101515.78;10497712;28;20153;-63
2023/07/18 15:27:53;;;;;;;;;;;;;;;30.60;33.32;101525.41;10498347;28;19925;-63
2023/07/18 15:32:56;;;;;;;;;;;;;;;30.10;33.68;101525.59;10498113;28;20295;-63
2023/07/18 15:38:06;;;;;;;;;;;;;;;30.18;32.81;101513.81;10498355;28;20372;-63
2023/07/18 15:43:09;;;;;;;;;;;;;;;29.64;32.48;101504.56;10480032;28;19929;-63
2023/07/18 15:48:11;;;;;;;;;;;;;;;29.61;35.41;101511.16;10498213;28;19931;-63
2023/07/18 15:53:13;;;;;;;;;;;;;;;29.17;32.25;101506.03;10497581;28;20287;-63
2023/07/18 15:58:16;;;;;;;;;;;;;;;29.91;33.55;101493.91;10497401;28;20275;-63
2023/07/18 16:03:18;;;;;;;;;;;;;;;27.82;36.41;101481.22;10497865;28;19924;-62
2023/07/18 16:08:20;;;;;;;;;;;;;;;27.87;34.10;101491.44;10501373;28;19924;-61
2023/07/18 16:13:23;;;;;;;;;;;;;;;27.25;36.92;101488.84;10505222;28;20400;-62
2023/07/18 16:18:25;;;;;;;;;;;;;;;27.51;37.48;101479.53;10505075;28;19946;-62
2023/07/18 16:23:27;;;;;;;;;;;;;;;28.83;33.64;101461.75;10504901;28;20003;-62
2023/07/18 16:28:29;;;;;;;;;;;;;;;27.77;35.64;101459.44;10504728;28;19931;-61
2023/07/18 16:33:32;;;;;;;;;;;;;;;28.39;36.75;101458.16;10504632;28;19924;-61
2023/07/18 16:38:34;;;;;;;;;;;;;;;27.73;37.32;101455.44;10504470;28;19928;-62
2023/07/18 16:43:38;;;;;;;;;;;;;;;27.77;36.23;101448.66;10504326;28;19970;-62
2023/07/18 16:48:40;;;;;;;;;;;;;;;27.99;36.33;101444.22;10504330;28;19930;-62
2023/07/18 16:53:42;;;;;;;;;;;;;;;26.41;37.09;101445.78;10503970;28;19964;-62
2023/07/18 16:58:45;;;;;;;;;;;;;;;26.09;40.50;101436.88;10503676;28;19925;-62
2023/07/18 17:03:47;;;;;;;;;;;;;;;26.51;41.25;101429.41;10503467;28;19930;-63
2023/07/18 17:08:49;;;;;;;;;;;;;;;27.73;39.78;101429.38;10503242;28;19930;-62
2023/07/18 17:13:51;;;;;;;;;;;;;;;27.64;38.80;101411.69;10503101;28;20291;-63
2023/07/18 17:18:54;;;;;;;;;;;;;;;27.79;39.48;101406.28;10502430;28;19925;-62
2023/07/18 17:23:56;;;;;;;;;;;;;;;26.79;38.14;101410.13;10502693;28;20379;-62
2023/07/18 17:28:58;;;;;;;;;;;;;;;25.53;40.30;101401.19;10502517;28;19924;-62
2023/07/18 17:34:01;;;;;;;;;;;;;;;25.65;42.83;101401.66;10484585;28;19924;-62
2023/07/18 17:39:04;;;;;;;;;;;;;;;25.24;41.93;101407.09;10502008;28;20001;-62
2023/07/18 17:44:06;;;;;;;;;;;;;;;25.53;43.74;101403.84;10501839;28;20264;-62
2023/07/18 17:49:08;;;;;;;;;;;;;;;24.79;44.70;101395.88;10501880;28;19924;-62
2023/07/18 17:54:11;;;;;;;;;;;;;;;24.57;47.42;101384.00;10501743;28;19930;-61
2023/07/18 17:59:13;;;;;;;;;;;;;;;24.11;49.72;101387.06;10501173;28;19931;-62
2023/07/18 18:04:15;;;;;;;;;;;;;;;23.97;53.17;101391.19;10501019;28;19924;-61
2023/07/18 18:09:19;;;;;;;;;;;;;;;23.49;56.58;101389.94;10500802;28;20367;-62
2023/07/18 18:14:22;;;;;;;;;;;;;;;23.15;57.47;101398.75;10500816;28;19928;-62
2023/07/18 18:19:24;;;;;;;;;;;;;;;22.92;59.21;101388.53;10482808;28;20011;-62
2023/07/18 18:24:26;;;;;;;;;;;;;;;22.60;59.45;101387.25;10500243;28;19932;-62
2023/07/18 18:29:30;;;;;;;;;;;;;;;22.79;58.42;101388.91;10481675;28;20403;-62
2023/07/18 18:34:32;;;;;;;;;;;;;;;22.87;58.63;101387.31;10499430;28;19931;-62
2023/07/18 18:39:34;;;;;;;;;;;;;;;22.75;59.03;101379.53;10499536;28;20287;-61
2023/07/18 18:44:37;;;;;;;;;;;;;;;22.40;59.72;101394.56;10499434;28;19924;-62
2023/07/18 18:49:39;;;;;;;;;;;;;;;22.08;61.55;101390.50;10499587;28;19924;-62
2023/07/18 18:54:41;;;;;;;;;;;;;;;21.98;62.60;101381.72;10499169;28;19924;-61
2023/07/18 18:59:44;;;;;;;;;;;;;;;21.92;62.52;101384.16;10498969;28;19946;-61
2023/07/18 19:04:47;;;;;;;;;;;;;;;21.75;63.75;101383.94;10499040;28;20339;-61
2023/07/18 19:09:50;;;;;;;;;;;;;;;21.42;63.86;101385.31;10481191;28;19928;-62
2023/07/18 19:14:54;;;;;;;;;;;;;;;21.09;64.42;101390.97;10498613;28;19967;-62
2023/07/18 19:19:59;;;;;;;;;;;;;;;20.82;64.57;101394.34;10481323;28;19970;-62
2023/07/18 19:25:02;;;;;;;;;;;;;;;21.11;63.85;101393.50;10498727;28;19979;-61
2023/07/18 19:30:04;;;;;;;;;;;;;;;20.60;64.17;101396.28;10498211;28;19925;-62
2023/07/18 19:35:07;;;;;;;;;;;;;;;20.59;64.35;101393.75;10498236;28;19925;-62
2023/07/18 19:40:13;;;;;;;;;;;;;;;20.29;66.42;101400.00;10498090;28;19930;-62
2023/07/18 19:45:15;;;;;;;;;;;;;;;20.06;67.04;101405.56;10505493;28;20364;-62
2023/07/18 19:50:17;;;;;;;;;;;;;;;20.12;65.94;101391.72;10506883;28;19930;-62
2023/07/18 19:55:20;;;;;;;;;;;;;;;19.80;66.76;101403.38;10506430;28;19925;-62
2023/07/18 20:00:22;;;;;;;;;;;;;;;19.75;66.52;101400.25;10505915;28;20302;-61
2023/07/18 20:05:24;;;;;;;;;;;;;;;19.92;66.35;101409.44;10505940;28;19924;-63
2023/07/18 20:10:26;;;;;;;;;;;;;;;19.75;68.13;101415.38;10505567;28;20050;-62
2023/07/18 20:15:29;;;;;;;;;;;;;;;19.91;68.66;101421.03;10505403;28;19925;-62
2023/07/18 20:20:31;;;;;;;;;;;;;;;19.86;68.55;101418.78;10505033;28;20383;-62
2023/07/18 20:25:33;;;;;;;;;;;;;;;19.90;68.68;101414.03;10487083;28;19925;-62
2023/07/18 20:30:36;;;;;;;;;;;;;;;19.71;71.08;101408.63;10487386;28;19930;-62
2023/07/18 20:35:38;;;;;;;;;;;;;;;19.68;72.13;101415.03;10504566;28;19925;-62
2023/07/18 20:40:41;;;;;;;;;;;;;;;19.53;74.70;101414.53;10504517;28;19924;-62
2023/07/18 20:46:02;;;;;;;;;;;;;;;19.68;74.67;101413.19;10486480;28;20402;-61
2023/07/18 20:51:05;;;;;;;;;;;;;;;19.55;75.42;101403.78;10504273;28;19924;-61
2023/07/18 20:56:08;;;;;;;;;;;;;;;19.48;76.13;101392.84;10485157;28;19929;-61
2023/07/18 21:01:10;;;;;;;;;;;;;;;19.40;76.06;101385.53;10503813;28;19931;-61
2023/07/18 21:06:12;;;;;;;;;;;;;;;19.39;76.87;101385.66;10503537;28;20011;-61
2023/07/18 21:11:15;;;;;;;;;;;;;;;19.43;77.12;101385.28;10503286;28;19935;-61
2023/07/18 21:16:18;;;;;;;;;;;;;;;19.40;78.70;101387.34;10503296;28;19924;-62
2023/07/18 21:21:20;;;;;;;;;;;;;;;19.37;78.67;101382.31;10502859;28;19924;-62
2023/07/18 21:26:23;;;;;;;;;;;;;;;19.51;78.54;101394.41;10502406;28;20360;-61
2023/07/18 21:31:25;;;;;;;;;;;;;;;19.30;80.11;101387.31;10502546;28;19956;-62
2023/07/18 21:36:28;;;;;;;;;;;;;;;19.31;79.63;101392.47;10502491;28;19924;-61
2023/07/18 21:41:30;;;;;;;;;;;;;;;19.25;80.62;101385.03;10468050;28;19931;-61
2023/07/18 21:46:33;;;;;;;;;;;;;;;19.24;81.01;101372.72;10501856;28;20011;-61
2023/07/18 21:51:37;;;;;;;;;;;;;;;18.91;83.10;101376.41;10501720;28;19924;-62
2023/07/18 21:56:39;;;;;;;;;;;;;;;18.94;82.71;101371.69;10501469;28;19925;-62
2023/07/18 22:01:41;;;;;;;;;;;;;;;18.77;83.49;101368.75;10501120;28;20290;-61
2023/07/18 22:06:43;;;;;;;;;;;;;;;18.69;82.26;101361.41;10483061;28;19970;-61
2023/07/18 22:11:46;;;;;;;;;;;;;;;18.74;82.72;101353.91;10501409;28;19931;-61
2023/07/18 22:16:49;;;;;;;;;;;;;;;18.71;84.84;101347.06;10500644;28;19924;-61
2023/07/18 22:21:51;;;;;;;;;;;;;;;18.56;84.15;101357.13;10500401;28;19947;-61
2023/07/18 22:26:53;;;;;;;;;;;;;;;18.42;86.98;101370.66;10500113;28;19931;-61
2023/07/18 22:31:55;;;;;;;;;;;;;;;18.27;87.60;101372.75;10499895;28;19924;-61
2023/07/18 22:36:58;;;;;;;;;;;;;;;18.29;87.97;101357.59;10500022;28;19931;-61
2023/07/18 22:42:19;;;;;;;;;;;;;;;18.32;87.88;101367.91;10520260;22;20401;-60
2023/07/18 22:47:21;;;;;;;;;;;;;;;18.28;86.63;101363.00;10541526;28;19931;-60
2023/07/18 22:52:23;;;;;;;;;;;;;;;18.12;88.26;101364.25;10540289;28;19924;-59
2023/07/18 22:57:26;;;;;;;;;;;;;;;17.91;87.23;101361.50;10540996;28;20382;-60
2023/07/18 23:02:28;;;;;;;;;;;;;;;17.82;89.24;101363.03;10541044;28;19931;-60
2023/07/18 23:07:30;;;;;;;;;;;;;;;17.70;89.79;101357.88;10540706;28;19950;-60
2023/07/18 23:12:33;;;;;;;;;;;;;;;17.54;90.90;101342.34;10539450;28;19930;-60
2023/07/18 23:17:35;;;;;;;;;;;;;;;17.51;90.39;101348.72;10538769;28;20023;-60
2023/07/18 23:22:37;;;;;;;;;;;;;;;17.34;93.63;101342.09;10539051;28;19952;-60
2023/07/18 23:27:39;;;;;;;;;;;;;;;17.19;94.75;101327.41;10540200;28;19966;-60
2023/07/18 23:32:42;;;;;;;;;;;;;;;17.07;96.44;101330.03;10540160;28;20026;-60
2023/07/18 23:37:44;;;;;;;;;;;;;;;16.85;99.03;101328.16;10539962;28;20286;-59
2023/07/18 23:42:46;;;;;;;;;;;;;;;16.76;100.00;101322.69;10539733;28;20007;-59
2023/07/18 23:47:48;;;;;;;;;;;;;;;16.85;98.24;101335.25;10539817;28;19924;-60
2023/07/18 23:52:51;;;;;;;;;;;;;;;16.79;99.08;101327.75;10539804;28;19924;-60
2023/07/18 23:57:53;;;;;;;;;;;;;;;16.75;99.08;101321.03;10539577;28;20373;-59
